sensor_id;sensor_type;location;lat;lon;timestamp;temperature;humidity
22629;DHT22;11481;53.694;9.910;2023-07-13T00:00:11;18.30;99.90
22629;DHT22;11481;53.694;9.910;2023-07-13T00:02:39;18.30;99.90
22629;DHT22;11481;53.694;9.910;2023-07-13T00:05:06;18.30;99.90
22629;DHT22;11481;53.694;9.910;2023-07-13T00:07:34;18.20;99.90
22629;DHT22;11481;53.694;9.910;2023-07-13T00:10:01;18.20;99.90
22629;DHT22;11481;53.694;9.910;2023-07-13T00:12:36;18.20;99.90
22629;DHT22;11481;53.694;9.910;2023-07-13T00:15:15;18.20;99.90
22629;DHT22;11481;53.694;9.910;2023-07-13T00:17:43;18.20;99.90
22629;DHT22;11481;53.694;9.910;2023-07-13T00:20:11;18.10;99.90
22629;DHT22;11481;53.694;9.910;2023-07-13T00:22:38;18.10;99.90
22629;DHT22;11481;53.694;9.910;2023-07-13T00:25:05;18.10;99.90
22629;DHT22;11481;53.694;9.910;2023-07-13T00:27:32;18.10;99.90
22629;DHT22;11481;53.694;9.910;2023-07-13T00:29:59;18.10;99.90
22629;DHT22;11481;53.694;9.910;2023-07-13T00:32:26;18.00;99.90
22629;DHT22;11481;53.694;9.910;2023-07-13T00:34:52;18.00;99.90
22629;DHT22;11481;53.694;9.910;2023-07-13T00:37:19;18.00;99.90
22629;DHT22;11481;53.694;9.910;2023-07-13T00:39:46;18.00;99.90
22629;DHT22;11481;53.694;9.910;2023-07-13T00:42:12;17.90;99.90
22629;DHT22;11481;53.694;9.910;2023-07-13T00:44:39;17.90;99.90
22629;DHT22;11481;53.694;9.910;2023-07-13T00:47:06;17.80;99.90
22629;DHT22;11481;53.694;9.910;2023-07-13T00:49:35;17.80;99.90
22629;DHT22;11481;53.694;9.910;2023-07-13T00:52:06;17.80;99.90
22629;DHT22;11481;53.694;9.910;2023-07-13T00:54:38;17.70;99.90
22629;DHT22;11481;53.694;9.910;2023-07-13T00:57:09;17.70;99.90
22629;DHT22;11481;53.694;9.910;2023-07-13T00:59:38;17.70;99.90
22629;DHT22;11481;53.694;9.910;2023-07-13T01:02:06;17.70;99.90
22629;DHT22;11481;53.694;9.910;2023-07-13T01:04:33;17.70;99.90
22629;DHT22;11481;53.694;9.910;2023-07-13T01:07:00;17.70;99.90
22629;DHT22;11481;53.694;9.910;2023-07-13T01:09:27;17.70;99.90
22629;DHT22;11481;53.694;9.910;2023-07-13T01:11:54;17.60;99.90
22629;DHT22;11481;53.694;9.910;2023-07-13T01:14:20;17.70;99.90
22629;DHT22;11481;53.694;9.910;2023-07-13T01:16:47;17.60;99.90
22629;DHT22;11481;53.694;9.910;2023-07-13T01:19:36;17.60;99.90
22629;DHT22;11481;53.694;9.910;2023-07-13T01:22:10;17.60;99.90
22629;DHT22;11481;53.694;9.910;2023-07-13T01:24:40;17.60;99.90
22629;DHT22;11481;53.694;9.910;2023-07-13T01:27:09;17.60;99.90
22629;DHT22;11481;53.694;9.910;2023-07-13T01:29:38;17.50;99.90
22629;DHT22;11481;53.694;9.910;2023-07-13T01:32:21;17.50;99.90
22629;DHT22;11481;53.694;9.910;2023-07-13T01:34:51;17.60;99.90
22629;DHT22;11481;53.694;9.910;2023-07-13T01:37:21;17.50;99.90
22629;DHT22;11481;53.694;9.910;2023-07-13T01:43:11;17.40;99.90
22629;DHT22;11481;53.694;9.910;2023-07-13T01:45:38;17.40;99.90
22629;DHT22;11481;53.694;9.910;2023-07-13T01:48:05;17.40;99.90
22629;DHT22;11481;53.694;9.910;2023-07-13T01:50:34;17.40;99.90
22629;DHT22;11481;53.694;9.910;2023-07-13T01:53:00;17.30;99.90
22629;DHT22;11481;53.694;9.910;2023-07-13T01:55:28;17.30;99.90
22629;DHT22;11481;53.694;9.910;2023-07-13T01:57:56;17.30;99.90
22629;DHT22;11481;53.694;9.910;2023-07-13T02:00:23;17.30;99.90
22629;DHT22;11481;53.694;9.910;2023-07-13T02:02:50;17.30;99.90
22629;DHT22;11481;53.694;9.910;2023-07-13T02:05:16;17.30;99.90
22629;DHT22;11481;53.694;9.910;2023-07-13T02:07:43;17.20;99.90
22629;DHT22;11481;53.694;9.910;2023-07-13T02:10:11;17.20;99.90
22629;DHT22;11481;53.694;9.910;2023-07-13T02:12:38;17.30;99.90
22629;DHT22;11481;53.694;9.910;2023-07-13T02:15:06;17.30;99.90
22629;DHT22;11481;53.694;9.910;2023-07-13T02:17:34;17.20;99.90
22629;DHT22;11481;53.694;9.910;2023-07-13T02:20:02;17.30;99.90
22629;DHT22;11481;53.694;9.910;2023-07-13T02:22:29;17.20;99.90
22629;DHT22;11481;53.694;9.910;2023-07-13T02:24:55;17.20;99.90
22629;DHT22;11481;53.694;9.910;2023-07-13T02:27:22;17.10;99.90
22629;DHT22;11481;53.694;9.910;2023-07-13T02:29:49;17.20;99.90
22629;DHT22;11481;53.694;9.910;2023-07-13T02:32:18;17.20;99.90
22629;DHT22;11481;53.694;9.910;2023-07-13T02:34:45;17.10;99.90
22629;DHT22;11481;53.694;9.910;2023-07-13T02:37:12;17.10;99.90
22629;DHT22;11481;53.694;9.910;2023-07-13T02:39:38;17.10;99.90
22629;DHT22;11481;53.694;9.910;2023-07-13T02:42:06;17.10;99.90
22629;DHT22;11481;53.694;9.910;2023-07-13T02:44:33;17.10;99.90
22629;DHT22;11481;53.694;9.910;2023-07-13T02:46:59;17.10;99.90
22629;DHT22;11481;53.694;9.910;2023-07-13T02:49:26;17.10;99.90
22629;DHT22;11481;53.694;9.910;2023-07-13T02:51:53;17.00;99.90
22629;DHT22;11481;53.694;9.910;2023-07-13T02:54:20;17.00;99.90
22629;DHT22;11481;53.694;9.910;2023-07-13T02:56:46;17.00;99.90
22629;DHT22;11481;53.694;9.910;2023-07-13T02:59:13;16.90;99.90
22629;DHT22;11481;53.694;9.910;2023-07-13T03:01:40;16.90;99.90
22629;DHT22;11481;53.694;9.910;2023-07-13T03:04:07;16.80;99.90
22629;DHT22;11481;53.694;9.910;2023-07-13T03:06:34;16.90;99.90
22629;DHT22;11481;53.694;9.910;2023-07-13T03:09:01;16.90;99.90
22629;DHT22;11481;53.694;9.910;2023-07-13T03:11:28;16.90;99.90
22629;DHT22;11481;53.694;9.910;2023-07-13T03:13:56;16.90;99.90
22629;DHT22;11481;53.694;9.910;2023-07-13T03:16:23;16.90;99.90
22629;DHT22;11481;53.694;9.910;2023-07-13T03:18:50;16.90;99.90
22629;DHT22;11481;53.694;9.910;2023-07-13T03:21:17;16.80;99.90
22629;DHT22;11481;53.694;9.910;2023-07-13T03:23:43;16.80;99.90
22629;DHT22;11481;53.694;9.910;2023-07-13T03:26:16;16.80;99.90
22629;DHT22;11481;53.694;9.910;2023-07-13T03:28:43;16.70;99.90
22629;DHT22;11481;53.694;9.910;2023-07-13T03:31:19;16.70;99.90
22629;DHT22;11481;53.694;9.910;2023-07-13T03:33:47;16.70;99.90
22629;DHT22;11481;53.694;9.910;2023-07-13T03:36:20;16.70;99.90
22629;DHT22;11481;53.694;9.910;2023-07-13T03:38:49;16.70;99.90
22629;DHT22;11481;53.694;9.910;2023-07-13T03:41:16;16.70;99.90
22629;DHT22;11481;53.694;9.910;2023-07-13T03:43:43;16.60;99.90
22629;DHT22;11481;53.694;9.910;2023-07-13T03:46:10;16.60;99.90
22629;DHT22;11481;53.694;9.910;2023-07-13T03:48:37;16.60;99.90
22629;DHT22;11481;53.694;9.910;2023-07-13T03:51:06;16.60;99.90
22629;DHT22;11481;53.694;9.910;2023-07-13T03:53:33;16.60;99.90
22629;DHT22;11481;53.694;9.910;2023-07-13T03:55:59;16.50;99.90
22629;DHT22;11481;53.694;9.910;2023-07-13T03:58:30;16.60;99.90
22629;DHT22;11481;53.694;9.910;2023-07-13T04:00:58;16.60;99.90
22629;DHT22;11481;53.694;9.910;2023-07-13T04:03:26;16.60;99.90
22629;DHT22;11481;53.694;9.910;2023-07-13T04:05:55;16.60;99.90
22629;DHT22;11481;53.694;9.910;2023-07-13T04:08:27;16.60;99.90
22629;DHT22;11481;53.694;9.910;2023-07-13T04:10:54;16.60;99.90
22629;DHT22;11481;53.694;9.910;2023-07-13T04:13:21;16.60;99.90
22629;DHT22;11481;53.694;9.910;2023-07-13T04:15:48;16.50;99.90
22629;DHT22;11481;53.694;9.910;2023-07-13T04:18:14;16.60;99.90
22629;DHT22;11481;53.694;9.910;2023-07-13T04:20:41;16.50;99.90
22629;DHT22;11481;53.694;9.910;2023-07-13T04:23:08;16.60;99.90
22629;DHT22;11481;53.694;9.910;2023-07-13T04:25:35;16.60;99.90
22629;DHT22;11481;53.694;9.910;2023-07-13T04:28:03;16.60;99.90
22629;DHT22;11481;53.694;9.910;2023-07-13T04:30:31;16.50;99.90
22629;DHT22;11481;53.694;9.910;2023-07-13T04:32:58;16.50;99.90
22629;DHT22;11481;53.694;9.910;2023-07-13T04:35:24;16.50;99.90
22629;DHT22;11481;53.694;9.910;2023-07-13T04:37:51;16.60;99.90
22629;DHT22;11481;53.694;9.910;2023-07-13T04:40:19;16.50;99.90
22629;DHT22;11481;53.694;9.910;2023-07-13T04:42:46;16.50;99.90
22629;DHT22;11481;53.694;9.910;2023-07-13T04:45:14;16.50;99.90
22629;DHT22;11481;53.694;9.910;2023-07-13T04:47:41;16.50;99.90
22629;DHT22;11481;53.694;9.910;2023-07-13T04:50:09;16.50;99.90
22629;DHT22;11481;53.694;9.910;2023-07-13T04:52:37;16.50;99.90
22629;DHT22;11481;53.694;9.910;2023-07-13T04:55:04;16.50;99.90
22629;DHT22;11481;53.694;9.910;2023-07-13T04:57:31;16.60;99.90
22629;DHT22;11481;53.694;9.910;2023-07-13T04:59:59;16.60;99.90
22629;DHT22;11481;53.694;9.910;2023-07-13T05:02:28;16.60;99.90
22629;DHT22;11481;53.694;9.910;2023-07-13T05:04:56;16.60;99.90
22629;DHT22;11481;53.694;9.910;2023-07-13T05:07:23;16.60;99.90
22629;DHT22;11481;53.694;9.910;2023-07-13T05:09:50;16.70;99.90
22629;DHT22;11481;53.694;9.910;2023-07-13T05:12:16;16.80;99.90
22629;DHT22;11481;53.694;9.910;2023-07-13T05:14:43;16.70;99.90
22629;DHT22;11481;53.694;9.910;2023-07-13T05:17:10;16.90;99.90
22629;DHT22;11481;53.694;9.910;2023-07-13T05:19:37;17.10;99.90
22629;DHT22;11481;53.694;9.910;2023-07-13T05:22:04;17.00;99.90
22629;DHT22;11481;53.694;9.910;2023-07-13T05:24:31;17.10;99.90
22629;DHT22;11481;53.694;9.910;2023-07-13T05:26:57;17.10;99.90
22629;DHT22;11481;53.694;9.910;2023-07-13T05:29:24;17.10;99.90
22629;DHT22;11481;53.694;9.910;2023-07-13T05:31:51;17.10;99.90
22629;DHT22;11481;53.694;9.910;2023-07-13T05:34:18;17.00;99.90
22629;DHT22;11481;53.694;9.910;2023-07-13T05:36:44;16.90;99.90
22629;DHT22;11481;53.694;9.910;2023-07-13T05:39:11;16.90;99.90
22629;DHT22;11481;53.694;9.910;2023-07-13T05:41:38;16.90;99.90
22629;DHT22;11481;53.694;9.910;2023-07-13T05:44:04;16.90;99.90
22629;DHT22;11481;53.694;9.910;2023-07-13T05:46:31;16.90;99.90
22629;DHT22;11481;53.694;9.910;2023-07-13T05:48:58;16.90;99.90
22629;DHT22;11481;53.694;9.910;2023-07-13T05:51:26;17.00;99.90
22629;DHT22;11481;53.694;9.910;2023-07-13T05:53:53;16.90;99.90
22629;DHT22;11481;53.694;9.910;2023-07-13T05:56:20;16.90;99.90
22629;DHT22;11481;53.694;9.910;2023-07-13T05:58:48;16.90;99.90
22629;DHT22;11481;53.694;9.910;2023-07-13T06:01:16;16.90;99.90
22629;DHT22;11481;53.694;9.910;2023-07-13T06:03:43;16.90;99.90
22629;DHT22;11481;53.694;9.910;2023-07-13T06:06:10;16.90;99.90
22629;DHT22;11481;53.694;9.910;2023-07-13T06:08:39;16.90;99.90
22629;DHT22;11481;53.694;9.910;2023-07-13T06:11:09;17.00;99.90
22629;DHT22;11481;53.694;9.910;2023-07-13T06:13:39;17.00;99.90
22629;DHT22;11481;53.694;9.910;2023-07-13T06:16:06;17.00;99.90
22629;DHT22;11481;53.694;9.910;2023-07-13T06:18:34;17.10;99.90
22629;DHT22;11481;53.694;9.910;2023-07-13T06:21:06;17.20;99.90
22629;DHT22;11481;53.694;9.910;2023-07-13T06:23:34;17.20;99.90
22629;DHT22;11481;53.694;9.910;2023-07-13T06:26:01;17.20;99.90
22629;DHT22;11481;53.694;9.910;2023-07-13T06:28:28;17.10;99.90
22629;DHT22;11481;53.694;9.910;2023-07-13T06:30:57;17.20;99.90
22629;DHT22;11481;53.694;9.910;2023-07-13T06:33:24;17.30;99.90
22629;DHT22;11481;53.694;9.910;2023-07-13T06:35:51;17.40;99.90
22629;DHT22;11481;53.694;9.910;2023-07-13T06:38:18;17.30;99.90
22629;DHT22;11481;53.694;9.910;2023-07-13T06:40:44;17.40;99.90
22629;DHT22;11481;53.694;9.910;2023-07-13T06:43:11;17.30;99.90
22629;DHT22;11481;53.694;9.910;2023-07-13T06:45:46;17.30;99.90
22629;DHT22;11481;53.694;9.910;2023-07-13T06:48:14;17.40;99.90
22629;DHT22;11481;53.694;9.910;2023-07-13T06:50:42;17.30;99.90
22629;DHT22;11481;53.694;9.910;2023-07-13T06:53:10;17.30;99.90
22629;DHT22;11481;53.694;9.910;2023-07-13T06:55:37;17.40;99.90
22629;DHT22;11481;53.694;9.910;2023-07-13T06:58:04;17.60;99.90
22629;DHT22;11481;53.694;9.910;2023-07-13T07:00:31;17.60;99.90
22629;DHT22;11481;53.694;9.910;2023-07-13T07:03:02;17.50;99.90
22629;DHT22;11481;53.694;9.910;2023-07-13T07:05:29;17.70;99.90
22629;DHT22;11481;53.694;9.910;2023-07-13T07:07:55;17.60;99.90
22629;DHT22;11481;53.694;9.910;2023-07-13T07:10:22;17.40;99.90
22629;DHT22;11481;53.694;9.910;2023-07-13T07:12:51;17.50;99.90
22629;DHT22;11481;53.694;9.910;2023-07-13T07:15:20;17.60;99.90
22629;DHT22;11481;53.694;9.910;2023-07-13T07:17:47;17.70;99.90
22629;DHT22;11481;53.694;9.910;2023-07-13T07:20:15;17.60;99.90
22629;DHT22;11481;53.694;9.910;2023-07-13T07:22:42;17.90;99.90
22629;DHT22;11481;53.694;9.910;2023-07-13T07:25:09;17.80;99.90
22629;DHT22;11481;53.694;9.910;2023-07-13T07:27:35;17.80;99.90
22629;DHT22;11481;53.694;9.910;2023-07-13T07:30:06;17.90;99.90
22629;DHT22;11481;53.694;9.910;2023-07-13T07:32:36;18.10;99.90
22629;DHT22;11481;53.694;9.910;2023-07-13T07:35:07;18.20;99.90
22629;DHT22;11481;53.694;9.910;2023-07-13T07:37:36;18.20;99.90
22629;DHT22;11481;53.694;9.910;2023-07-13T07:40:07;18.20;99.90
22629;DHT22;11481;53.694;9.910;2023-07-13T07:42:37;18.20;99.90
22629;DHT22;11481;53.694;9.910;2023-07-13T07:45:04;18.20;99.90
22629;DHT22;11481;53.694;9.910;2023-07-13T07:47:31;18.20;99.90
22629;DHT22;11481;53.694;9.910;2023-07-13T07:49:58;18.50;99.90
22629;DHT22;11481;53.694;9.910;2023-07-13T07:52:24;18.50;99.90
22629;DHT22;11481;53.694;9.910;2023-07-13T07:54:51;18.50;99.90
22629;DHT22;11481;53.694;9.910;2023-07-13T07:57:21;18.70;99.90
22629;DHT22;11481;53.694;9.910;2023-07-13T07:59:51;18.60;99.90
22629;DHT22;11481;53.694;9.910;2023-07-13T08:02:20;18.60;99.90
22629;DHT22;11481;53.694;9.910;2023-07-13T08:04:50;18.40;99.90
22629;DHT22;11481;53.694;9.910;2023-07-13T08:07:20;18.30;99.90
22629;DHT22;11481;53.694;9.910;2023-07-13T08:09:47;18.40;99.90
22629;DHT22;11481;53.694;9.910;2023-07-13T08:12:13;18.50;99.90
22629;DHT22;11481;53.694;9.910;2023-07-13T08:14:49;18.50;99.90
22629;DHT22;11481;53.694;9.910;2023-07-13T08:17:20;18.60;99.90
22629;DHT22;11481;53.694;9.910;2023-07-13T08:19:50;18.70;99.90
22629;DHT22;11481;53.694;9.910;2023-07-13T08:22:17;18.70;99.90
22629;DHT22;11481;53.694;9.910;2023-07-13T08:24:46;18.70;99.90
22629;DHT22;11481;53.694;9.910;2023-07-13T08:27:13;18.70;99.90
22629;DHT22;11481;53.694;9.910;2023-07-13T08:29:40;18.80;99.90
22629;DHT22;11481;53.694;9.910;2023-07-13T08:32:07;18.80;99.90
22629;DHT22;11481;53.694;9.910;2023-07-13T08:34:36;18.80;99.90
22629;DHT22;11481;53.694;9.910;2023-07-13T08:37:03;18.90;99.90
22629;DHT22;11481;53.694;9.910;2023-07-13T08:39:30;19.00;99.90
22629;DHT22;11481;53.694;9.910;2023-07-13T08:47:35;19.30;99.90
22629;DHT22;11481;53.694;9.910;2023-07-13T08:50:04;19.40;99.90
22629;DHT22;11481;53.694;9.910;2023-07-13T08:52:34;19.70;99.90
22629;DHT22;11481;53.694;9.910;2023-07-13T08:55:26;19.60;99.90
22629;DHT22;11481;53.694;9.910;2023-07-13T08:58:09;19.90;99.90
22629;DHT22;11481;53.694;9.910;2023-07-13T09:01:02;19.90;99.90
22629;DHT22;11481;53.694;9.910;2023-07-13T09:06:23;20.20;99.90
22629;DHT22;11481;53.694;9.910;2023-07-13T09:09:13;20.30;99.90
22629;DHT22;11481;53.694;9.910;2023-07-13T09:11:50;20.30;99.90
22629;DHT22;11481;53.694;9.910;2023-07-13T09:14:50;20.20;99.90
22629;DHT22;11481;53.694;9.910;2023-07-13T09:17:25;20.10;99.90
22629;DHT22;11481;53.694;9.910;2023-07-13T09:20:34;19.90;99.90
22629;DHT22;11481;53.694;9.910;2023-07-13T09:22:52;19.90;99.90
22629;DHT22;11481;53.694;9.910;2023-07-13T09:25:33;20.00;99.90
22629;DHT22;11481;53.694;9.910;2023-07-13T09:28:17;20.20;99.90
22629;DHT22;11481;53.694;9.910;2023-07-13T09:31:01;20.10;99.90
22629;DHT22;11481;53.694;9.910;2023-07-13T09:33:30;20.40;99.90
22629;DHT22;11481;53.694;9.910;2023-07-13T09:35:58;20.50;99.90
22629;DHT22;11481;53.694;9.910;2023-07-13T09:38:28;20.50;99.90
22629;DHT22;11481;53.694;9.910;2023-07-13T09:46:32;20.90;99.90
22629;DHT22;11481;53.694;9.910;2023-07-13T09:48:59;20.90;99.90
22629;DHT22;11481;53.694;9.910;2023-07-13T09:51:25;20.90;99.90
22629;DHT22;11481;53.694;9.910;2023-07-13T09:53:52;20.80;99.90
22629;DHT22;11481;53.694;9.910;2023-07-13T09:56:23;20.90;99.90
22629;DHT22;11481;53.694;9.910;2023-07-13T09:58:51;20.70;99.90
22629;DHT22;11481;53.694;9.910;2023-07-13T10:01:36;20.60;99.90
22629;DHT22;11481;53.694;9.910;2023-07-13T10:04:14;20.60;99.90
22629;DHT22;11481;53.694;9.910;2023-07-13T10:06:43;20.70;99.90
22629;DHT22;11481;53.694;9.910;2023-07-13T10:09:15;20.90;99.90
22629;DHT22;11481;53.694;9.910;2023-07-13T10:11:43;21.10;99.90
22629;DHT22;11481;53.694;9.910;2023-07-13T10:14:16;20.90;99.90
22629;DHT22;11481;53.694;9.910;2023-07-13T10:16:46;20.80;99.90
22629;DHT22;11481;53.694;9.910;2023-07-13T10:19:21;20.80;99.90
22629;DHT22;11481;53.694;9.910;2023-07-13T10:21:54;20.90;99.90
22629;DHT22;11481;53.694;9.910;2023-07-13T10:24:24;20.90;99.90
22629;DHT22;11481;53.694;9.910;2023-07-13T10:26:56;21.20;99.90
22629;DHT22;11481;53.694;9.910;2023-07-13T10:29:26;21.20;99.90
22629;DHT22;11481;53.694;9.910;2023-07-13T10:31:55;21.30;99.90
22629;DHT22;11481;53.694;9.910;2023-07-13T10:34:24;21.20;99.90
22629;DHT22;11481;53.694;9.910;2023-07-13T10:36:51;21.20;99.90
22629;DHT22;11481;53.694;9.910;2023-07-13T10:39:24;21.30;99.90
22629;DHT22;11481;53.694;9.910;2023-07-13T10:42:01;21.30;99.90
22629;DHT22;11481;53.694;9.910;2023-07-13T10:44:32;21.20;99.90
22629;DHT22;11481;53.694;9.910;2023-07-13T10:47:07;21.10;99.90
22629;DHT22;11481;53.694;9.910;2023-07-13T10:49:35;21.30;99.90
22629;DHT22;11481;53.694;9.910;2023-07-13T10:52:04;21.20;99.90
22629;DHT22;11481;53.694;9.910;2023-07-13T10:54:32;20.70;99.90
22629;DHT22;11481;53.694;9.910;2023-07-13T10:57:20;20.70;99.90
22629;DHT22;11481;53.694;9.910;2023-07-13T11:00:10;20.60;99.90
22629;DHT22;11481;53.694;9.910;2023-07-13T11:02:36;20.70;99.90
22629;DHT22;11481;53.694;9.910;2023-07-13T11:05:36;20.90;99.90
22629;DHT22;11481;53.694;9.910;2023-07-13T11:08:51;21.10;99.90
22629;DHT22;11481;53.694;9.910;2023-07-13T11:18:51;20.80;99.90
22629;DHT22;11481;53.694;9.910;2023-07-13T11:21:20;20.40;99.90
22629;DHT22;11481;53.694;9.910;2023-07-13T11:26:51;20.00;99.90
22629;DHT22;11481;53.694;9.910;2023-07-13T11:31:56;19.70;99.90
22629;DHT22;11481;53.694;9.910;2023-07-13T11:34:44;19.70;99.90
22629;DHT22;11481;53.694;9.910;2023-07-13T11:37:12;19.70;99.90
22629;DHT22;11481;53.694;9.910;2023-07-13T11:39:43;20.10;99.90
22629;DHT22;11481;53.694;9.910;2023-07-13T11:42:16;20.50;99.90
22629;DHT22;11481;53.694;9.910;2023-07-13T11:44:47;20.70;99.90
22629;DHT22;11481;53.694;9.910;2023-07-13T11:47:33;20.80;99.90
22629;DHT22;11481;53.694;9.910;2023-07-13T11:50:00;20.90;99.90
22629;DHT22;11481;53.694;9.910;2023-07-13T11:52:34;21.10;99.90
22629;DHT22;11481;53.694;9.910;2023-07-13T11:55:04;20.90;99.90
22629;DHT22;11481;53.694;9.910;2023-07-13T11:58:05;20.70;99.90
22629;DHT22;11481;53.694;9.910;2023-07-13T12:00:33;19.90;99.90
22629;DHT22;11481;53.694;9.910;2023-07-13T12:03:02;19.50;99.90
22629;DHT22;11481;53.694;9.910;2023-07-13T12:05:31;19.30;99.90
22629;DHT22;11481;53.694;9.910;2023-07-13T12:07:59;18.70;99.90
22629;DHT22;11481;53.694;9.910;2023-07-13T12:10:30;18.30;99.90
22629;DHT22;11481;53.694;9.910;2023-07-13T12:13:05;18.00;99.90
22629;DHT22;11481;53.694;9.910;2023-07-13T12:18:14;17.50;99.90
22629;DHT22;11481;53.694;9.910;2023-07-13T12:20:45;17.50;99.90
22629;DHT22;11481;53.694;9.910;2023-07-13T12:23:24;17.50;99.90
22629;DHT22;11481;53.694;9.910;2023-07-13T12:25:55;17.70;99.90
22629;DHT22;11481;53.694;9.910;2023-07-13T12:28:49;17.70;99.90
22629;DHT22;11481;53.694;9.910;2023-07-13T12:31:37;17.80;99.90
22629;DHT22;11481;53.694;9.910;2023-07-13T12:34:10;18.20;99.90
22629;DHT22;11481;53.694;9.910;2023-07-13T12:37:01;18.50;99.90
22629;DHT22;11481;53.694;9.910;2023-07-13T12:39:36;18.70;99.90
22629;DHT22;11481;53.694;9.910;2023-07-13T12:42:19;19.00;99.90
22629;DHT22;11481;53.694;9.910;2023-07-13T12:44:49;19.20;99.90
22629;DHT22;11481;53.694;9.910;2023-07-13T12:47:16;19.40;99.90
22629;DHT22;11481;53.694;9.910;2023-07-13T12:49:53;19.60;99.90
22629;DHT22;11481;53.694;9.910;2023-07-13T12:52:32;19.40;99.90
22629;DHT22;11481;53.694;9.910;2023-07-13T12:55:10;19.30;99.90
22629;DHT22;11481;53.694;9.910;2023-07-13T12:57:51;19.30;99.90
22629;DHT22;11481;53.694;9.910;2023-07-13T13:00:32;19.20;99.90
22629;DHT22;11481;53.694;9.910;2023-07-13T13:03:22;19.20;99.90
22629;DHT22;11481;53.694;9.910;2023-07-13T13:06:04;19.10;99.90
22629;DHT22;11481;53.694;9.910;2023-07-13T13:08:34;18.80;99.90
22629;DHT22;11481;53.694;9.910;2023-07-13T13:11:02;18.90;99.90
22629;DHT22;11481;53.694;9.910;2023-07-13T13:13:29;19.00;99.90
22629;DHT22;11481;53.694;9.910;2023-07-13T13:16:00;19.00;99.90
22629;DHT22;11481;53.694;9.910;2023-07-13T13:18:29;19.10;99.90
22629;DHT22;11481;53.694;9.910;2023-07-13T13:20:58;18.80;99.90
22629;DHT22;11481;53.694;9.910;2023-07-13T13:23:26;18.80;99.90
22629;DHT22;11481;53.694;9.910;2023-07-13T13:25:53;18.90;99.90
22629;DHT22;11481;53.694;9.910;2023-07-13T13:28:21;19.20;99.90
22629;DHT22;11481;53.694;9.910;2023-07-13T13:30:49;19.30;99.90
22629;DHT22;11481;53.694;9.910;2023-07-13T13:33:19;19.50;99.90
22629;DHT22;11481;53.694;9.910;2023-07-13T13:35:47;19.60;99.90
22629;DHT22;11481;53.694;9.910;2023-07-13T13:38:16;19.40;99.90
22629;DHT22;11481;53.694;9.910;2023-07-13T13:40:44;19.40;99.90
22629;DHT22;11481;53.694;9.910;2023-07-13T13:43:23;19.40;99.90
22629;DHT22;11481;53.694;9.910;2023-07-13T13:45:56;19.40;99.90
22629;DHT22;11481;53.694;9.910;2023-07-13T13:48:32;19.40;99.90
22629;DHT22;11481;53.694;9.910;2023-07-13T13:51:01;19.60;99.90
22629;DHT22;11481;53.694;9.910;2023-07-13T13:53:28;19.40;99.90
22629;DHT22;11481;53.694;9.910;2023-07-13T13:55:54;19.40;99.90
22629;DHT22;11481;53.694;9.910;2023-07-13T13:58:21;19.60;99.90
22629;DHT22;11481;53.694;9.910;2023-07-13T14:00:48;19.70;99.90
22629;DHT22;11481;53.694;9.910;2023-07-13T14:03:19;19.80;99.90
22629;DHT22;11481;53.694;9.910;2023-07-13T14:05:48;19.90;99.90
22629;DHT22;11481;53.694;9.910;2023-07-13T14:08:17;19.80;99.90
22629;DHT22;11481;53.694;9.910;2023-07-13T14:10:49;19.40;99.90
22629;DHT22;11481;53.694;9.910;2023-07-13T14:13:21;19.50;99.90
22629;DHT22;11481;53.694;9.910;2023-07-13T14:15:49;19.60;99.90
22629;DHT22;11481;53.694;9.910;2023-07-13T14:18:16;19.60;99.90
22629;DHT22;11481;53.694;9.910;2023-07-13T14:20:46;19.50;99.90
22629;DHT22;11481;53.694;9.910;2023-07-13T14:23:16;19.50;99.90
22629;DHT22;11481;53.694;9.910;2023-07-13T14:25:46;19.60;99.90
22629;DHT22;11481;53.694;9.910;2023-07-13T14:28:26;19.70;99.90
22629;DHT22;11481;53.694;9.910;2023-07-13T14:30:53;19.80;99.90
22629;DHT22;11481;53.694;9.910;2023-07-13T14:33:24;19.80;99.90
22629;DHT22;11481;53.694;9.910;2023-07-13T14:35:51;19.60;99.90
22629;DHT22;11481;53.694;9.910;2023-07-13T14:38:20;19.70;99.90
22629;DHT22;11481;53.694;9.910;2023-07-13T14:40:47;19.80;99.90
22629;DHT22;11481;53.694;9.910;2023-07-13T14:43:15;19.80;99.90
22629;DHT22;11481;53.694;9.910;2023-07-13T14:45:51;19.90;99.90
22629;DHT22;11481;53.694;9.910;2023-07-13T14:48:24;19.80;99.90
22629;DHT22;11481;53.694;9.910;2023-07-13T14:50:57;19.80;99.90
22629;DHT22;11481;53.694;9.910;2023-07-13T14:53:26;19.90;99.90
22629;DHT22;11481;53.694;9.910;2023-07-13T14:55:54;19.90;99.90
22629;DHT22;11481;53.694;9.910;2023-07-13T14:58:21;19.90;99.90
22629;DHT22;11481;53.694;9.910;2023-07-13T15:00:48;20.40;99.90
22629;DHT22;11481;53.694;9.910;2023-07-13T15:03:22;20.60;99.90
22629;DHT22;11481;53.694;9.910;2023-07-13T15:05:52;20.70;99.90
22629;DHT22;11481;53.694;9.910;2023-07-13T15:08:19;20.50;99.90
22629;DHT22;11481;53.694;9.910;2023-07-13T15:10:46;20.50;99.90
22629;DHT22;11481;53.694;9.910;2023-07-13T15:13:20;20.50;99.90
22629;DHT22;11481;53.694;9.910;2023-07-13T15:15:49;20.50;99.90
22629;DHT22;11481;53.694;9.910;2023-07-13T15:18:21;20.60;99.90
22629;DHT22;11481;53.694;9.910;2023-07-13T15:20:50;20.80;99.90
22629;DHT22;11481;53.694;9.910;2023-07-13T15:23:19;20.80;99.90
22629;DHT22;11481;53.694;9.910;2023-07-13T15:25:46;20.70;99.90
22629;DHT22;11481;53.694;9.910;2023-07-13T15:28:13;20.80;99.90
22629;DHT22;11481;53.694;9.910;2023-07-13T15:30:44;20.80;99.90
22629;DHT22;11481;53.694;9.910;2023-07-13T15:33:18;20.80;99.90
22629;DHT22;11481;53.694;9.910;2023-07-13T15:35:46;20.70;99.90
22629;DHT22;11481;53.694;9.910;2023-07-13T15:38:21;20.60;99.90
22629;DHT22;11481;53.694;9.910;2023-07-13T15:40:49;20.60;99.90
22629;DHT22;11481;53.694;9.910;2023-07-13T15:43:18;20.60;99.90
22629;DHT22;11481;53.694;9.910;2023-07-13T15:45:46;20.60;99.90
22629;DHT22;11481;53.694;9.910;2023-07-13T15:48:16;20.70;99.90
22629;DHT22;11481;53.694;9.910;2023-07-13T15:50:52;20.80;99.90
22629;DHT22;11481;53.694;9.910;2023-07-13T15:53:26;20.80;99.90
22629;DHT22;11481;53.694;9.910;2023-07-13T15:55:54;20.70;99.90
22629;DHT22;11481;53.694;9.910;2023-07-13T15:58:21;20.70;99.90
22629;DHT22;11481;53.694;9.910;2023-07-13T16:00:48;20.50;99.90
22629;DHT22;11481;53.694;9.910;2023-07-13T16:03:20;20.40;99.90
22629;DHT22;11481;53.694;9.910;2023-07-13T16:05:51;20.40;99.90
22629;DHT22;11481;53.694;9.910;2023-07-13T16:08:27;20.50;99.90
22629;DHT22;11481;53.694;9.910;2023-07-13T16:10:57;20.50;99.90
22629;DHT22;11481;53.694;9.910;2023-07-13T16:13:23;20.70;99.90
22629;DHT22;11481;53.694;9.910;2023-07-13T16:15:53;20.70;99.90
22629;DHT22;11481;53.694;9.910;2023-07-13T16:18:22;20.70;99.90
22629;DHT22;11481;53.694;9.910;2023-07-13T16:20:49;20.60;99.90